Etusivu
METAR-TAF:

Lentoasemat :

Kittilä, Suomi

Kittilän lentoasema

Leveyspiiri: 67-42N, Pituuspiiri: 024-51E, korkeus merenpinnasta: 196 m

Tämänhetkinen sää

Tämä raportti tehtiin 24 minuuttia sitten, kello 11.50 UTC
Tuuli 12 kn etelästä, vaihdellen kaakon ja lounaan välillä
Lämpötila 22°C
Kosteus 53%
Ilmanpaine 1012 hPa
Näkyvyys 10 km tai enemmän
Muutamia pilviä 4000 ft:n korkeudessa

METAR: EFKT 301150Z AUTO 17012KT 140V220 9999 FEW040 22/12 Q1012

Aika: 15:14 (12:14 UTC)

Sääennuste

Tämä raportti tehtiin 3 tuntia ja 52 minuuttia sitten, kello 08.22 UTC
Ennuste voimassa 30. päivästä klo 09 UTC - 30. päivään klo 11 UTC
Tuuli 5 kn etelästä/kaakosta
Näkyvyys 10 km tai enemmän
Hajanaisia pilviä 6000 ft:n korkeudessa
heikkoa sadetta
Ajoittain
30. päivästä klo 09 UTC - 30. päivään klo 11 UTC
Näkyvyys: 4000 m
Muutamia pilviä 6000 ft:n korkeudessa, Cumulonimbus.
vesikuuroja

TAF: EFKT 300822Z 3009/3011 15005KT 9999 -RA SCT060 TEMPO 3009/3011 4000 SHRA FEW060CB

METAR-TAF

Säähavainnot ja -ennusteet yli 4000 lentoasemalta (METAR- ja TAF-raportit).

Käytössä olevat sääasemat on merkitty karttaan keltaisilla ja punaisilla pisteillä.

Aseta hiiri pisteen päälle nähdäksesi sääaseman nimen.

Klikkaa sitten nähdäksesi säähavainnot ja -ennusteet.

Kartan vaihtaminen: klikkaa mustalla rastilla varustettuja vihreitä pisteitä, niin voit zoomata sisään; viivalla varustettua vihreää pistettä, niin voit zoomata ulos tai vihreitä nuolia, niin pääset viereisille kartoille.


METAR-TAF: